createdAt,value
2023-04-06T00:02:59.768Z,75.29
2023-04-06T00:08:01.700Z,75.06
2023-04-06T00:13:03.488Z,75.09
2023-04-06T00:18:05.382Z,74.75
2023-04-06T00:23:07.243Z,74.92
2023-04-06T00:28:08.932Z,74.92
2023-04-06T00:33:10.732Z,74.94
2023-04-06T00:38:13.153Z,75.50
2023-04-06T00:43:15.296Z,75.91
2023-04-06T00:48:17.560Z,75.70
2023-04-06T00:53:19.467Z,75.74
2023-04-06T00:58:21.282Z,76.12
2023-04-06T01:03:27.210Z,76.33
2023-04-06T01:08:29.371Z,75.82
2023-04-06T01:13:42.163Z,75.64
2023-04-06T01:18:51.691Z,75.44
2023-04-06T01:23:56.981Z,75.35
2023-04-06T01:29:04.129Z,75.29
2023-04-06T01:34:06.368Z,75.08
2023-04-06T01:39:08.456Z,75.61
2023-04-06T01:44:12.192Z,75.96
2023-04-06T01:49:15.983Z,76.11
2023-04-06T01:54:20.237Z,76.02
2023-04-06T01:59:41.868Z,75.96
2023-04-06T02:04:49.927Z,75.95
2023-04-06T02:09:56.373Z,76.08
2023-04-06T02:15:01.801Z,76.05
2023-04-06T02:20:03.650Z,76.01
2023-04-06T02:25:05.749Z,75.77
2023-04-06T02:30:09.114Z,75.43
2023-04-06T02:35:11.340Z,75.26
2023-04-06T02:40:15.094Z,75.11
2023-04-06T02:45:17.251Z,75.20
2023-04-06T02:50:21.775Z,75.23
2023-04-06T02:55:29.303Z,75.38
2023-04-06T03:00:31.569Z,75.48
2023-04-06T03:05:33.311Z,75.63
2023-04-06T03:10:35.913Z,75.86
2023-04-06T03:15:37.747Z,76.12
2023-04-06T03:20:48.191Z,76.52
2023-04-06T03:25:50.965Z,76.59
2023-04-06T03:30:54.655Z,76.54
2023-04-06T03:36:11.477Z,76.77
2023-04-06T03:41:16.115Z,76.89
2023-04-06T03:46:22.412Z,76.28
2023-04-06T03:51:27.919Z,76.26
2023-04-06T03:56:29.629Z,76.51
2023-04-06T04:01:31.397Z,76.57
2023-04-06T04:06:33.280Z,77.22
2023-04-06T04:11:35.087Z,77.85
2023-04-06T04:16:36.855Z,77.58
2023-04-06T04:21:46.531Z,76.74
2023-04-06T04:26:50.850Z,76.09
2023-04-06T04:31:53.335Z,76.35
2023-04-06T04:36:55.382Z,76.60
2023-04-06T04:42:04.048Z,76.72
2023-04-06T04:47:06.641Z,77.16
2023-04-06T04:52:15.928Z,77.25
2023-04-06T04:57:28.369Z,77.15
2023-04-06T05:02:30.671Z,77.23
2023-04-06T05:07:45.471Z,77.37
2023-04-06T05:12:53.485Z,77.40
2023-04-06T05:17:55.473Z,77.62
2023-04-06T05:23:00.424Z,77.25
2023-04-06T05:28:02.489Z,77.04
2023-04-06T05:33:07.154Z,76.43
2023-04-06T05:38:19.839Z,76.23
2023-04-06T05:43:23.288Z,75.57
2023-04-06T05:48:29.010Z,75.22
2023-04-06T05:53:31.092Z,74.16
2023-04-06T05:58:34.850Z,73.56
2023-04-06T06:03:37.280Z,72.78
2023-04-06T06:08:39.097Z,72.28
2023-04-06T06:13:46.116Z,71.58
2023-04-06T06:18:48.963Z,70.49
2023-04-06T06:23:51.995Z,70.05
2023-04-06T06:28:56.157Z,69.36
2023-04-06T06:33:58.671Z,67.88
2023-04-06T06:39:01.650Z,66.96
2023-04-06T06:44:13.784Z,65.01
2023-04-06T06:49:15.626Z,62.27
2023-04-06T06:54:17.314Z,62.09
2023-04-06T06:59:19.230Z,61.41
2023-04-06T07:04:21.561Z,60.41
2023-04-06T07:09:28.811Z,59.55
2023-04-06T07:14:31.234Z,58.51
2023-04-06T07:19:32.999Z,57.84
2023-04-06T07:24:34.786Z,57.38
2023-04-06T07:29:36.584Z,55.82
2023-04-06T07:34:38.522Z,54.82
2023-04-06T07:39:41.280Z,54.63
2023-04-06T07:44:43.300Z,54.52
2023-04-06T07:49:46.321Z,53.26
2023-04-06T07:54:50.393Z,53.07
2023-04-06T07:59:52.451Z,53.04
2023-04-06T08:04:54.585Z,52.45
2023-04-06T08:09:56.273Z,52.13
2023-04-06T08:14:58.121Z,50.55
2023-04-06T08:20:00.493Z,49.68
2023-04-06T08:25:02.186Z,50.06
2023-04-06T08:30:04.202Z,49.84
2023-04-06T08:35:09.010Z,49.22
2023-04-06T08:40:14.029Z,48.97
2023-04-06T08:45:17.659Z,48.55
2023-04-06T08:50:20.192Z,48.93
2023-04-06T08:55:23.468Z,48.64
2023-04-06T09:00:26.601Z,48.53
2023-04-06T09:05:28.437Z,49.25
2023-04-06T09:10:30.632Z,48.85
2023-04-06T09:15:32.387Z,48.74
2023-04-06T09:20:34.228Z,47.20
2023-04-06T09:25:35.908Z,46.59
2023-04-06T09:30:37.614Z,47.05
2023-04-06T09:35:39.353Z,46.53
2023-04-06T09:41:00.886Z,45.91
2023-04-06T09:46:05.240Z,46.38
2023-04-06T09:51:07.898Z,45.37
2023-04-06T09:56:14.020Z,44.50
2023-04-06T10:01:18.503Z,44.60
2023-04-06T10:06:23.765Z,44.43
2023-04-06T10:11:25.767Z,44.04
2023-04-06T10:16:29.031Z,44.38
2023-04-06T10:21:33.536Z,44.42
2023-04-06T10:26:35.395Z,44.89
2023-04-06T10:31:43.272Z,44.27
2023-04-06T10:36:45.198Z,43.58
2023-04-06T10:41:49.104Z,43.93
2023-04-06T10:46:57.459Z,43.84
2023-04-06T10:51:59.536Z,43.53
2023-04-06T10:57:01.913Z,43.21
2023-04-06T11:02:22.158Z,43.24
2023-04-06T11:07:27.919Z,44.29
2023-04-06T11:12:31.264Z,43.69
2023-04-06T11:17:37.881Z,43.35
2023-04-06T11:22:49.716Z,43.03
2023-04-06T11:27:52.990Z,43.36
2023-04-06T11:33:01.604Z,43.89
2023-04-06T11:38:05.187Z,44.31
2023-04-06T11:43:07.991Z,43.65
2023-04-06T11:48:20.363Z,43.65
2023-04-06T11:53:22.831Z,43.57
2023-04-06T11:58:25.464Z,42.57
2023-04-06T12:03:27.494Z,42.50
2023-04-06T12:08:29.396Z,43.17
2023-04-06T12:13:31.102Z,42.17
2023-04-06T12:18:32.801Z,42.65
2023-04-06T12:23:34.487Z,43.21
2023-04-06T12:28:36.602Z,42.84
2023-04-06T12:33:38.266Z,43.06
2023-04-06T12:38:42.261Z,43.52
2023-04-06T12:43:45.324Z,43.82
2023-04-06T12:48:47.288Z,43.77
2023-04-06T12:53:49.305Z,44.75
2023-04-06T12:58:54.889Z,44.87
2023-04-06T13:03:58.914Z,44.81
2023-04-06T13:09:01.106Z,44.98
2023-04-06T13:14:03.056Z,45.78
2023-04-06T13:19:05.002Z,46.01
2023-04-06T13:24:06.943Z,46.06
2023-04-06T13:29:08.654Z,46.41
2023-04-06T13:34:11.079Z,46.00
2023-04-06T13:39:12.878Z,46.49
2023-04-06T13:44:14.734Z,46.83
2023-04-06T13:49:17.133Z,47.16
2023-04-06T13:54:19.143Z,47.21
2023-04-06T13:59:21.243Z,48.44
2023-04-06T14:04:23.535Z,50.42
2023-04-06T14:09:25.579Z,52.05
2023-04-06T14:14:27.588Z,53.37
2023-04-06T14:19:29.349Z,55.18
2023-04-06T14:24:31.830Z,55.63
2023-04-06T14:29:37.249Z,56.21
2023-04-06T14:34:41.198Z,57.18
2023-04-06T14:39:42.946Z,57.78
2023-04-06T14:44:46.261Z,58.55
2023-04-06T14:49:51.326Z,58.59
2023-04-06T14:54:53.109Z,58.83
2023-04-06T14:59:55.340Z,58.12
2023-04-06T15:04:57.762Z,58.59
2023-04-06T15:09:59.452Z,59.54
2023-04-06T15:15:02.020Z,60.83
2023-04-06T15:20:04.503Z,62.08
2023-04-06T15:25:06.716Z,62.23
2023-04-06T15:30:08.708Z,61.77
2023-04-06T15:35:11.851Z,62.23
2023-04-06T15:40:14.541Z,62.15
2023-04-06T15:45:16.462Z,62.28
2023-04-06T15:50:19.662Z,62.12
2023-04-06T15:55:21.365Z,62.05
2023-04-06T16:00:23.367Z,62.34
2023-04-06T16:05:27.134Z,62.38
2023-04-06T16:10:30.198Z,63.14
2023-04-06T16:15:31.928Z,63.33
2023-04-06T16:20:35.939Z,63.86
2023-04-06T16:25:37.694Z,63.94
2023-04-06T16:30:40.914Z,63.86
2023-04-06T16:35:45.424Z,63.93
2023-04-06T16:40:47.120Z,63.73
2023-04-06T16:45:52.274Z,63.77
2023-04-06T16:50:55.176Z,63.91
2023-04-06T16:55:57.191Z,63.82
2023-04-06T17:01:01.729Z,63.72
2023-04-06T17:06:03.526Z,63.90
2023-04-06T17:11:05.221Z,65.55
2023-04-06T17:16:08.281Z,67.57
2023-04-06T17:21:14.594Z,68.95
2023-04-06T17:26:17.139Z,69.58
2023-04-06T17:31:18.960Z,70.36
2023-04-06T17:36:22.011Z,71.07
2023-04-06T17:41:24.132Z,72.21
2023-04-06T17:46:27.194Z,72.72
2023-04-06T17:51:28.903Z,73.47
2023-04-06T17:56:31.046Z,73.35
2023-04-06T18:01:32.927Z,73.80
2023-04-06T18:06:36.941Z,74.43
2023-04-06T18:11:38.764Z,74.33
2023-04-06T18:16:41.074Z,74.35
2023-04-06T18:21:42.856Z,75.28
2023-04-06T18:26:44.498Z,76.22
2023-04-06T18:31:51.533Z,76.56
2023-04-06T18:36:53.325Z,76.89
2023-04-06T18:41:55.790Z,77.05
2023-04-06T18:46:58.389Z,77.23
2023-04-06T18:52:01.620Z,76.96
2023-04-06T18:57:04.250Z,77.63
2023-04-06T19:02:14.801Z,78.44
2023-04-06T19:07:16.794Z,78.07
2023-04-06T19:12:18.507Z,78.37
2023-04-06T19:17:21.107Z,78.42
2023-04-06T19:22:23.626Z,78.65
2023-04-06T19:27:33.833Z,78.67
2023-04-06T19:32:37.526Z,79.48
2023-04-06T19:37:39.562Z,79.34
2023-04-06T19:42:41.220Z,79.25
2023-04-06T19:47:43.257Z,79.44
2023-04-06T19:52:44.932Z,80.19
2023-04-06T19:57:46.738Z,80.46
2023-04-06T20:02:48.622Z,80.17
2023-04-06T20:07:50.628Z,80.80
2023-04-06T20:12:52.550Z,81.25
2023-04-06T20:17:54.262Z,81.44
2023-04-06T20:22:56.168Z,81.60
2023-04-06T20:27:58.112Z,81.10
2023-04-06T20:32:59.910Z,81.35
2023-04-06T20:38:02.182Z,81.57
2023-04-06T20:43:05.590Z,82.12
2023-04-06T20:48:07.436Z,82.03
2023-04-06T20:53:09.272Z,81.89
2023-04-06T20:58:11.092Z,81.87
2023-04-06T21:03:12.913Z,82.29
2023-04-06T21:08:14.763Z,82.19
2023-04-06T21:13:21.194Z,82.76
2023-04-06T21:18:23.650Z,82.85
2023-04-06T21:23:27.313Z,82.25
2023-04-06T21:28:29.181Z,83.12
2023-04-06T21:33:31.038Z,83.43
2023-04-06T21:38:32.962Z,83.66
2023-04-06T21:43:35.974Z,83.89
2023-04-06T21:48:58.070Z,83.78
2023-04-06T21:54:01.995Z,84.00
2023-04-06T21:59:03.734Z,83.93
2023-04-06T22:04:05.516Z,83.84
2023-04-06T22:09:07.372Z,84.37
2023-04-06T22:14:09.064Z,84.55
2023-04-06T22:19:11.123Z,84.49
2023-04-06T22:24:13.212Z,84.34
2023-04-06T22:29:15.027Z,84.48
2023-04-06T22:34:16.985Z,84.68
2023-04-06T22:39:19.145Z,84.67
2023-04-06T22:44:20.914Z,84.48
2023-04-06T22:49:22.737Z,84.35
2023-04-06T22:54:24.516Z,84.77
2023-04-06T22:59:26.338Z,84.39
2023-04-06T23:04:28.200Z,84.68
2023-04-06T23:09:31.103Z,84.13
2023-04-06T23:14:39.719Z,84.37
2023-04-06T23:19:41.628Z,84.32
2023-04-06T23:24:43.313Z,84.13
2023-04-06T23:29:45.017Z,84.40
2023-04-06T23:34:46.721Z,84.10
2023-04-06T23:39:48.486Z,84.00
2023-04-06T23:44:50.663Z,83.92
2023-04-06T23:49:58.491Z,84.07
2023-04-06T23:55:01.298Z,84.09
